createdAt,value
2022-12-08T00:01:15.406Z,2.40
2022-12-08T00:03:42.519Z,2.44
2022-12-08T00:06:21.390Z,2.37
2022-12-08T00:08:47.915Z,2.30
2022-12-08T00:11:15.084Z,2.37
2022-12-08T00:13:41.693Z,2.27
2022-12-08T00:16:08.419Z,2.22
2022-12-08T00:18:34.915Z,2.19
2022-12-08T00:21:01.262Z,2.01
2022-12-08T00:23:27.723Z,2.03
2022-12-08T00:25:54.083Z,1.98
2022-12-08T00:28:20.437Z,1.96
2022-12-08T00:30:46.753Z,1.99
2022-12-08T00:33:13.322Z,2.06
2022-12-08T00:35:43.029Z,2.14
2022-12-08T00:38:09.800Z,2.20
2022-12-08T00:40:36.154Z,2.11
2022-12-08T00:43:02.488Z,1.95
2022-12-08T00:45:28.912Z,1.94
2022-12-08T00:47:55.289Z,1.87
2022-12-08T00:50:21.661Z,1.92
2022-12-08T00:52:48.004Z,1.83
2022-12-08T00:55:14.362Z,1.72
2022-12-08T00:57:40.670Z,1.83
2022-12-08T01:00:07.689Z,1.85
2022-12-08T01:02:34.273Z,1.74
2022-12-08T01:05:00.611Z,1.69
2022-12-08T01:07:27.615Z,1.67
2022-12-08T01:09:53.979Z,1.74
2022-12-08T01:12:20.312Z,1.80
2022-12-08T01:14:46.648Z,1.87
2022-12-08T01:17:13.061Z,1.85
2022-12-08T01:19:39.437Z,1.82
2022-12-08T01:22:05.788Z,1.71
2022-12-08T01:24:32.201Z,1.75
2022-12-08T01:26:58.536Z,1.62
2022-12-08T01:29:26.152Z,1.68
2022-12-08T01:31:52.534Z,1.86
2022-12-08T01:34:19.037Z,1.90
2022-12-08T01:36:45.354Z,1.73
2022-12-08T01:39:16.548Z,1.70
2022-12-08T01:41:43.894Z,1.78
2022-12-08T01:44:10.183Z,1.74
2022-12-08T01:46:40.644Z,1.75
2022-12-08T01:49:15.785Z,1.77
2022-12-08T01:51:56.617Z,1.73
2022-12-08T01:54:26.417Z,1.73
2022-12-08T01:57:01.050Z,1.70
2022-12-08T01:59:30.113Z,1.70
2022-12-08T02:01:57.112Z,1.81
2022-12-08T02:04:23.482Z,1.92
2022-12-08T02:06:51.633Z,1.97
2022-12-08T02:09:19.073Z,2.01
2022-12-08T02:11:45.862Z,2.04
2022-12-08T02:14:13.606Z,2.09
2022-12-08T02:17:02.734Z,2.10
2022-12-08T02:19:42.529Z,2.17
2022-12-08T02:22:16.960Z,2.19
2022-12-08T02:25:03.361Z,2.24
2022-12-08T02:27:56.574Z,2.19
2022-12-08T02:30:36.160Z,2.27
2022-12-08T02:33:21.402Z,2.28
2022-12-08T02:35:59.326Z,2.26
2022-12-08T02:39:10.171Z,2.34
2022-12-08T02:41:46.951Z,2.34
2022-12-08T02:44:32.905Z,2.35
2022-12-08T02:47:08.408Z,2.40
2022-12-08T02:49:35.654Z,2.47
2022-12-08T02:52:11.532Z,2.47
2022-12-08T02:54:41.812Z,2.45
2022-12-08T02:57:16.551Z,2.48
2022-12-08T02:59:45.671Z,2.47
2022-12-08T03:02:30.967Z,2.41
2022-12-08T03:05:13.642Z,2.54
2022-12-08T03:07:53.033Z,2.52
2022-12-08T03:10:27.699Z,2.54
2022-12-08T03:13:14.208Z,2.49
2022-12-08T03:15:43.125Z,2.47
2022-12-08T03:18:14.061Z,2.35
2022-12-08T03:20:41.485Z,2.49
2022-12-08T03:23:11.365Z,2.45
2022-12-08T03:25:43.570Z,2.50
2022-12-08T03:28:10.227Z,2.39
2022-12-08T03:30:40.346Z,2.41
2022-12-08T03:33:17.909Z,2.22
2022-12-08T03:35:46.122Z,2.26
2022-12-08T03:38:15.356Z,2.18
2022-12-08T03:40:42.839Z,2.24
2022-12-08T03:43:09.816Z,2.25
2022-12-08T03:45:36.556Z,2.25
2022-12-08T03:48:03.417Z,2.31
2022-12-08T03:50:29.779Z,2.15
2022-12-08T03:52:56.227Z,2.22
2022-12-08T03:55:22.575Z,2.39
2022-12-08T03:57:48.944Z,2.44
2022-12-08T04:00:15.986Z,2.38
2022-12-08T04:02:42.663Z,2.30
2022-12-08T04:05:09.949Z,2.42
2022-12-08T04:07:36.374Z,2.38
2022-12-08T04:10:04.193Z,2.32
2022-12-08T04:12:30.703Z,2.40
2022-12-08T04:14:57.079Z,2.40
2022-12-08T04:17:23.460Z,2.43
2022-12-08T04:19:49.845Z,2.31
2022-12-08T04:22:16.222Z,2.32
2022-12-08T04:24:42.623Z,2.31
2022-12-08T04:27:09.004Z,2.34
2022-12-08T04:29:35.398Z,2.29
2022-12-08T04:32:01.749Z,2.24
2022-12-08T04:34:28.190Z,2.20
2022-12-08T04:36:54.572Z,2.21
2022-12-08T04:39:20.974Z,2.35
2022-12-08T04:41:47.332Z,2.31
2022-12-08T04:44:13.713Z,2.23
2022-12-08T04:46:43.392Z,2.14
2022-12-08T04:49:10.336Z,2.07
2022-12-08T04:51:36.704Z,2.16
2022-12-08T04:54:03.255Z,2.04
2022-12-08T04:56:29.637Z,2.06
2022-12-08T04:58:56.023Z,2.17
2022-12-08T05:01:22.409Z,2.09
2022-12-08T05:03:48.815Z,2.20
2022-12-08T05:06:15.220Z,2.21
2022-12-08T05:08:43.156Z,2.15
2022-12-08T05:11:12.060Z,2.23
2022-12-08T05:13:38.548Z,2.19
2022-12-08T05:16:13.903Z,2.21
2022-12-08T05:18:41.710Z,2.20
2022-12-08T05:21:08.813Z,2.23
2022-12-08T05:23:35.600Z,2.27
2022-12-08T05:26:02.082Z,2.39
2022-12-08T05:28:44.321Z,2.42
2022-12-08T05:31:12.868Z,2.40
2022-12-08T05:33:39.811Z,2.42
2022-12-08T05:36:06.712Z,2.48
2022-12-08T05:38:33.100Z,2.45
2022-12-08T05:40:59.478Z,2.39
2022-12-08T05:43:26.724Z,2.42
2022-12-08T05:45:53.173Z,2.39
2022-12-08T05:48:19.662Z,2.45
2022-12-08T05:50:47.772Z,2.49
2022-12-08T05:53:14.996Z,2.41
2022-12-08T05:56:04.954Z,2.38
2022-12-08T05:58:31.300Z,2.35
2022-12-08T06:00:57.694Z,2.41
2022-12-08T06:03:24.099Z,2.34
2022-12-08T06:05:50.524Z,2.34
2022-12-08T06:08:17.314Z,2.39
2022-12-08T06:10:45.405Z,2.34
2022-12-08T06:16:41.265Z,2.36
2022-12-08T06:19:08.250Z,2.42
2022-12-08T06:21:34.654Z,2.30
2022-12-08T06:24:01.043Z,2.23
2022-12-08T06:26:27.697Z,2.36
2022-12-08T06:28:54.342Z,2.23
2022-12-08T06:31:26.318Z,2.35
2022-12-08T06:33:54.283Z,2.28
2022-12-08T06:36:23.705Z,2.28
2022-12-08T06:38:50.172Z,2.21
2022-12-08T06:41:17.011Z,2.30
2022-12-08T06:43:44.165Z,2.21
2022-12-08T06:46:13.945Z,2.07
2022-12-08T06:48:40.627Z,2.14
2022-12-08T06:51:08.093Z,2.30
2022-12-08T06:53:34.604Z,2.33
2022-12-08T06:56:00.971Z,2.35
2022-12-08T06:58:27.443Z,2.44
2022-12-08T07:00:53.907Z,2.40
2022-12-08T07:03:20.454Z,2.38
2022-12-08T07:05:46.820Z,2.50
2022-12-08T07:08:13.340Z,2.47
2022-12-08T07:10:39.791Z,2.44
2022-12-08T07:13:06.230Z,2.43
2022-12-08T07:15:32.680Z,2.51
2022-12-08T07:18:00.229Z,2.52
2022-12-08T07:20:27.210Z,2.60
2022-12-08T07:22:54.023Z,2.62
2022-12-08T07:25:21.078Z,2.60
2022-12-08T07:27:47.487Z,2.50
2022-12-08T07:30:14.149Z,2.58
2022-12-08T07:32:40.812Z,2.53
2022-12-08T07:35:08.396Z,2.53
2022-12-08T07:37:41.304Z,2.52
2022-12-08T07:40:09.328Z,2.47
2022-12-08T07:42:35.893Z,2.39
2022-12-08T07:45:02.369Z,2.44
2022-12-08T07:47:28.784Z,2.48
2022-12-08T07:49:55.155Z,2.56
2022-12-08T07:52:21.771Z,2.59
2022-12-08T07:54:48.141Z,2.53
2022-12-08T07:57:14.820Z,2.54
2022-12-08T07:59:41.197Z,2.46
2022-12-08T08:02:24.143Z,2.55
2022-12-08T08:04:51.907Z,2.53
2022-12-08T08:07:18.386Z,2.45
2022-12-08T08:09:44.758Z,2.40
2022-12-08T08:12:30.347Z,2.45
2022-12-08T08:14:57.496Z,2.44
2022-12-08T08:17:24.100Z,2.45
2022-12-08T08:19:50.598Z,2.58
2022-12-08T08:22:16.984Z,2.65
2022-12-08T08:24:45.170Z,2.77
2022-12-08T08:27:11.950Z,2.76
2022-12-08T08:29:38.351Z,2.77
2022-12-08T08:32:04.825Z,2.71
2022-12-08T08:34:31.253Z,2.75
2022-12-08T08:36:57.700Z,2.73
2022-12-08T08:39:24.111Z,2.81
2022-12-08T08:41:50.495Z,2.69
2022-12-08T08:44:16.926Z,2.63
2022-12-08T08:46:43.417Z,2.64
2022-12-08T08:49:09.906Z,2.84
2022-12-08T08:51:36.506Z,2.93
2022-12-08T08:54:03.015Z,2.90
2022-12-08T08:56:29.405Z,2.88
2022-12-08T08:58:55.892Z,2.87
2022-12-08T09:01:27.456Z,2.93
2022-12-08T09:03:55.367Z,2.99
2022-12-08T09:06:22.899Z,3.00
2022-12-08T09:08:49.886Z,2.97
2022-12-08T09:11:17.224Z,3.08
2022-12-08T09:13:43.705Z,3.15
2022-12-08T09:16:12.083Z,3.20
2022-12-08T09:18:38.611Z,3.29
2022-12-08T09:21:10.727Z,3.23
2022-12-08T09:23:37.086Z,3.19
2022-12-08T09:26:04.135Z,3.34
2022-12-08T09:28:31.338Z,3.21
2022-12-08T09:30:57.817Z,3.28
2022-12-08T09:33:24.378Z,3.27
2022-12-08T09:35:50.738Z,3.32
2022-12-08T09:38:17.190Z,3.30
2022-12-08T09:40:51.996Z,3.21
2022-12-08T09:43:38.547Z,3.24
2022-12-08T09:46:09.353Z,3.25
2022-12-08T09:48:39.893Z,3.10
2022-12-08T09:51:08.317Z,3.20
2022-12-08T09:53:36.846Z,3.29
2022-12-08T09:56:08.925Z,3.35
2022-12-08T09:58:52.498Z,3.30
2022-12-08T10:01:21.184Z,3.50
2022-12-08T10:03:47.832Z,3.38
2022-12-08T10:06:38.679Z,3.47
2022-12-08T10:09:22.996Z,3.50
2022-12-08T10:12:13.795Z,3.51
2022-12-08T10:14:43.977Z,3.55
2022-12-08T10:17:29.709Z,3.26
2022-12-08T10:20:06.793Z,3.48
2022-12-08T10:22:37.579Z,3.56
2022-12-08T10:25:06.357Z,3.48
2022-12-08T10:27:36.675Z,3.56
2022-12-08T10:30:11.540Z,3.72
2022-12-08T10:32:38.097Z,3.72
2022-12-08T10:35:16.657Z,3.90
2022-12-08T10:37:56.073Z,4.08
2022-12-08T10:40:23.033Z,4.22
2022-12-08T10:42:53.875Z,4.36
2022-12-08T10:45:30.292Z,4.47
2022-12-08T10:48:03.698Z,4.42
2022-12-08T10:50:41.162Z,4.46
2022-12-08T10:53:07.497Z,4.54
2022-12-08T10:55:45.740Z,4.38
2022-12-08T10:58:35.443Z,4.27
2022-12-08T11:01:07.032Z,4.25
2022-12-08T11:03:38.741Z,4.44
2022-12-08T11:06:21.826Z,4.35
2022-12-08T11:08:51.659Z,4.37
2022-12-08T11:11:20.300Z,4.36
2022-12-08T11:13:50.824Z,4.32
2022-12-08T11:16:18.275Z,4.24
2022-12-08T11:18:54.768Z,4.27
2022-12-08T11:21:34.257Z,4.18
2022-12-08T11:24:18.470Z,4.24
2022-12-08T11:27:04.769Z,4.21
2022-12-08T11:29:33.684Z,4.16
2022-12-08T11:32:02.134Z,4.14
2022-12-08T11:34:42.856Z,4.14
2022-12-08T11:37:17.404Z,4.24
2022-12-08T11:39:49.961Z,4.04
2022-12-08T11:42:20.340Z,4.19
2022-12-08T11:44:58.209Z,4.31
2022-12-08T11:47:28.572Z,4.23
2022-12-08T11:50:16.618Z,4.21
2022-12-08T11:52:49.638Z,4.24
2022-12-08T11:55:40.706Z,4.17
2022-12-08T11:58:17.988Z,4.28
2022-12-08T12:00:44.712Z,4.25
2022-12-08T12:03:20.260Z,4.10
2022-12-08T12:08:54.624Z,3.96
2022-12-08T12:11:39.758Z,3.74
2022-12-08T12:14:32.364Z,3.85
2022-12-08T12:17:07.424Z,3.90
2022-12-08T12:19:38.802Z,4.01
2022-12-08T12:22:17.640Z,4.02
2022-12-08T12:24:47.434Z,4.08
2022-12-08T12:27:13.760Z,3.95
2022-12-08T12:29:52.266Z,3.95
2022-12-08T12:32:23.111Z,3.93
2022-12-08T12:34:57.026Z,3.97
2022-12-08T12:37:35.010Z,3.89
2022-12-08T12:40:18.348Z,3.82
2022-12-08T12:42:48.646Z,3.92
2022-12-08T12:45:14.995Z,3.94
2022-12-08T12:47:52.388Z,3.95
2022-12-08T12:50:34.236Z,3.99
2022-12-08T12:53:06.895Z,3.83
2022-12-08T12:56:04.045Z,3.80
2022-12-08T12:58:30.437Z,3.82
2022-12-08T13:01:12.035Z,3.84
2022-12-08T13:03:42.790Z,4.02
2022-12-08T13:06:14.607Z,4.17
2022-12-08T13:08:51.141Z,4.19
2022-12-08T13:11:17.890Z,4.18
2022-12-08T13:13:57.559Z,4.07
2022-12-08T13:16:32.099Z,4.08
2022-12-08T13:19:00.741Z,3.86
2022-12-08T13:21:34.701Z,3.88
2022-12-08T13:24:10.119Z,3.97
2022-12-08T13:27:03.738Z,3.95
2022-12-08T13:29:35.344Z,4.05
2022-12-08T13:32:22.956Z,3.98
2022-12-08T13:34:57.594Z,3.85
2022-12-08T13:37:30.607Z,3.83
2022-12-08T13:40:20.617Z,3.84
2022-12-08T13:43:06.133Z,3.75
2022-12-08T13:46:20.218Z,3.65
2022-12-08T13:49:18.518Z,3.69
2022-12-08T13:57:26.336Z,3.49
2022-12-08T13:59:52.924Z,3.49
2022-12-08T14:02:25.384Z,3.46
2022-12-08T14:07:40.904Z,3.46
2022-12-08T14:10:10.329Z,3.33
2022-12-08T14:12:37.368Z,3.35
2022-12-08T14:15:06.570Z,3.26
2022-12-08T14:17:34.781Z,3.17
2022-12-08T14:20:22.317Z,3.24
2022-12-08T14:22:48.975Z,3.19
2022-12-08T14:25:16.803Z,3.17
2022-12-08T14:27:43.886Z,3.17
2022-12-08T14:30:13.457Z,3.21
2022-12-08T14:32:50.755Z,2.98
2022-12-08T14:35:30.626Z,2.94
2022-12-08T14:38:00.090Z,2.97
2022-12-08T14:40:29.585Z,2.84
2022-12-08T14:43:08.289Z,2.72
2022-12-08T14:46:00.195Z,2.76
2022-12-08T14:48:35.683Z,2.69
2022-12-08T14:51:20.466Z,2.63
2022-12-08T14:54:08.289Z,2.61
2022-12-08T14:56:46.968Z,2.53
2022-12-08T14:59:15.378Z,2.48
2022-12-08T15:01:43.823Z,2.45
2022-12-08T15:04:22.870Z,2.32
2022-12-08T15:07:06.447Z,2.16
2022-12-08T15:09:38.180Z,2.15
2022-12-08T15:12:24.710Z,2.12
2022-12-08T15:15:14.273Z,2.05
2022-12-08T15:17:43.700Z,2.00
2022-12-08T15:20:44.491Z,1.89
2022-12-08T15:23:39.017Z,1.90
2022-12-08T15:26:05.786Z,1.92
2022-12-08T15:28:32.327Z,1.77
2022-12-08T15:30:59.209Z,1.79
2022-12-08T15:33:26.353Z,1.90
2022-12-08T15:35:53.536Z,1.92
2022-12-08T15:38:26.753Z,2.02
2022-12-08T15:40:54.221Z,2.02
2022-12-08T15:43:21.933Z,2.06
2022-12-08T15:45:58.568Z,2.02
2022-12-08T15:48:29.696Z,1.87
2022-12-08T15:50:56.676Z,1.88
2022-12-08T15:53:23.551Z,1.90
2022-12-08T15:56:19.047Z,1.70
2022-12-08T15:58:55.109Z,1.67
2022-12-08T16:01:23.362Z,1.55
2022-12-08T16:09:30.668Z,1.34
2022-12-08T16:12:06.405Z,1.32
2022-12-08T16:15:39.788Z,1.27
2022-12-08T16:17:20.714Z,1.28
2022-12-08T16:19:47.013Z,1.27
2022-12-08T16:25:18.189Z,1.16
2022-12-08T16:28:08.394Z,1.14
2022-12-08T16:30:31.527Z,1.02
2022-12-08T16:32:57.970Z,0.91
2022-12-08T16:35:24.286Z,0.89
2022-12-08T16:37:51.008Z,0.88
2022-12-08T16:40:17.415Z,0.92
2022-12-08T16:42:43.975Z,0.81
2022-12-08T16:45:13.777Z,0.79
2022-12-08T16:48:06.370Z,0.67
2022-12-08T16:50:34.831Z,0.72
2022-12-08T16:53:06.699Z,0.70
2022-12-08T16:55:34.528Z,0.69
2022-12-08T16:58:01.306Z,0.69
2022-12-08T17:00:29.628Z,0.72
2022-12-08T17:02:56.364Z,0.82
2022-12-08T17:05:25.041Z,0.75
2022-12-08T17:07:53.098Z,0.63
2022-12-08T17:10:25.181Z,0.55
2022-12-08T17:12:52.171Z,0.37
2022-12-08T17:15:21.598Z,0.28
2022-12-08T17:17:48.507Z,0.21
2022-12-08T17:20:17.464Z,0.12
2022-12-08T17:22:44.232Z,0.14
2022-12-08T17:25:11.145Z,0.22
2022-12-08T17:27:38.941Z,0.11
2022-12-08T17:30:07.247Z,0.12
2022-12-08T17:32:33.887Z,0.15
2022-12-08T17:35:00.315Z,0.22
2022-12-08T17:37:26.690Z,0.51
2022-12-08T17:39:53.043Z,0.89
2022-12-08T17:42:19.417Z,0.82
2022-12-08T17:44:45.778Z,0.78
2022-12-08T17:47:12.167Z,0.67
2022-12-08T17:49:38.761Z,0.68
2022-12-08T17:52:05.666Z,0.86
2022-12-08T17:54:33.003Z,0.87
2022-12-08T17:57:00.149Z,1.04
2022-12-08T17:59:28.021Z,0.99
2022-12-08T18:01:56.894Z,1.05
2022-12-08T18:04:25.335Z,1.27
2022-12-08T18:06:52.902Z,1.22
2022-12-08T18:09:23.072Z,1.22
2022-12-08T18:11:49.466Z,1.15
2022-12-08T18:14:16.375Z,1.22
2022-12-08T18:16:47.383Z,1.22
2022-12-08T18:19:14.900Z,1.14
2022-12-08T18:21:42.245Z,1.19
2022-12-08T18:24:15.375Z,1.32
2022-12-08T18:26:41.833Z,1.24
2022-12-08T18:29:08.174Z,1.16
2022-12-08T18:31:34.547Z,1.03
2022-12-08T18:34:00.873Z,1.08
2022-12-08T18:36:27.238Z,0.98
2022-12-08T18:38:53.914Z,1.02
2022-12-08T18:41:23.467Z,1.17
2022-12-08T18:43:50.008Z,1.18
2022-12-08T18:46:16.473Z,1.18
2022-12-08T18:48:45.892Z,1.08
2022-12-08T18:51:18.268Z,1.00
2022-12-08T18:53:45.327Z,1.10
2022-12-08T18:56:25.776Z,1.11
2022-12-08T18:58:52.958Z,1.22
2022-12-08T19:01:19.494Z,1.11
2022-12-08T19:04:12.050Z,1.11
2022-12-08T19:06:32.707Z,1.02
2022-12-08T19:08:59.062Z,1.09
2022-12-08T19:11:27.866Z,1.21
2022-12-08T19:13:54.942Z,1.04
2022-12-08T19:16:22.442Z,0.99
2022-12-08T19:18:49.030Z,1.01
2022-12-08T19:21:15.465Z,1.07
2022-12-08T19:23:42.342Z,1.19
2022-12-08T19:26:08.830Z,1.06
2022-12-08T19:28:35.242Z,0.99
2022-12-08T19:31:09.737Z,0.93
2022-12-08T19:33:36.762Z,0.81
2022-12-08T19:36:07.934Z,0.76
2022-12-08T19:38:34.423Z,0.60
2022-12-08T19:41:01.264Z,0.43
2022-12-08T19:43:27.677Z,0.39
2022-12-08T19:45:54.613Z,0.36
2022-12-08T19:48:21.045Z,0.31
2022-12-08T19:50:47.485Z,0.21
2022-12-08T19:53:15.176Z,0.27
2022-12-08T19:55:43.308Z,0.28
2022-12-08T19:58:10.490Z,0.20
2022-12-08T20:00:38.623Z,0.19
2022-12-08T20:03:05.757Z,0.12
2022-12-08T20:05:33.682Z,0.06
2022-12-08T20:08:00.104Z,0.11
2022-12-08T20:10:29.620Z,0.27
2022-12-08T20:12:56.632Z,0.30
2022-12-08T20:15:23.064Z,0.28
2022-12-08T20:17:49.461Z,0.43
2022-12-08T20:20:16.104Z,0.31
2022-12-08T20:22:42.577Z,0.20
2022-12-08T20:25:12.715Z,0.09
2022-12-08T20:27:39.685Z,0.07
2022-12-08T20:30:09.469Z,-0.03
2022-12-08T20:32:38.353Z,-0.14
2022-12-08T20:35:05.277Z,-0.34
2022-12-08T20:37:31.927Z,-0.53
2022-12-08T20:39:58.380Z,-0.57
2022-12-08T20:42:24.804Z,-0.71
2022-12-08T20:44:51.147Z,-0.74
2022-12-08T20:47:18.033Z,-0.71
2022-12-08T20:49:44.754Z,-0.80
2022-12-08T20:52:11.127Z,-0.85
2022-12-08T20:54:37.652Z,-0.86
2022-12-08T20:57:04.133Z,-0.57
2022-12-08T20:59:30.522Z,-0.38
2022-12-08T21:01:57.552Z,-0.31
2022-12-08T21:04:24.173Z,-0.32
2022-12-08T21:06:50.897Z,-0.28
2022-12-08T21:09:17.678Z,-0.32
2022-12-08T21:11:44.479Z,-0.05
2022-12-08T21:14:11.116Z,-0.10
2022-12-08T21:16:38.822Z,-0.37
2022-12-08T21:19:06.237Z,-0.43
2022-12-08T21:21:32.982Z,-0.33
2022-12-08T21:23:59.413Z,-0.24
2022-12-08T21:26:25.834Z,-0.18
2022-12-08T21:28:53.422Z,-0.05
2022-12-08T21:31:20.436Z,0.09
2022-12-08T21:33:47.906Z,0.09
2022-12-08T21:36:17.756Z,0.17
2022-12-08T21:38:44.630Z,0.36
2022-12-08T21:41:14.853Z,0.54
2022-12-08T21:43:42.462Z,0.54
2022-12-08T21:46:16.035Z,0.11
2022-12-08T21:48:42.707Z,-0.03
2022-12-08T21:51:09.281Z,-0.10
2022-12-08T21:53:35.801Z,-0.20
2022-12-08T21:56:02.281Z,-0.25
2022-12-08T21:58:28.906Z,-0.22
2022-12-08T22:00:55.577Z,-0.19
2022-12-08T22:03:22.117Z,-0.14
2022-12-08T22:05:48.726Z,-0.03
2022-12-08T22:08:15.342Z,0.12
2022-12-08T22:10:46.967Z,0.09
2022-12-08T22:13:13.565Z,0.01
2022-12-08T22:15:40.238Z,-0.05
2022-12-08T22:18:06.948Z,-0.07
2022-12-08T22:20:33.421Z,0.07
2022-12-08T22:23:00.152Z,-0.07
2022-12-08T22:25:26.846Z,-0.25
2022-12-08T22:27:53.563Z,-0.42
2022-12-08T22:30:20.101Z,-0.40
2022-12-08T22:32:46.721Z,-0.41
2022-12-08T22:35:13.307Z,-0.31
2022-12-08T22:37:39.866Z,-0.27
2022-12-08T22:40:07.531Z,-0.24
2022-12-08T22:42:34.306Z,-0.40
2022-12-08T22:45:00.822Z,-0.57
2022-12-08T22:47:27.436Z,-0.60
2022-12-08T22:49:53.978Z,-0.59
2022-12-08T22:52:20.502Z,-0.72
2022-12-08T22:54:47.334Z,-0.74
2022-12-08T22:57:13.739Z,-0.93
2022-12-08T22:59:40.078Z,-1.06
2022-12-08T23:02:07.861Z,-1.14
2022-12-08T23:04:35.718Z,-1.18
2022-12-08T23:07:02.781Z,-1.19
2022-12-08T23:09:29.441Z,-1.24
2022-12-08T23:11:55.879Z,-1.34
2022-12-08T23:14:22.299Z,-1.21
2022-12-08T23:16:48.799Z,-1.26
2022-12-08T23:19:15.304Z,-1.24
2022-12-08T23:21:41.749Z,-1.11
2022-12-08T23:24:08.141Z,-0.93
2022-12-08T23:26:34.564Z,-0.59
2022-12-08T23:29:01.732Z,-0.39
2022-12-08T23:31:28.550Z,-0.33
2022-12-08T23:33:54.970Z,-0.27
2022-12-08T23:36:23.490Z,-0.11
2022-12-08T23:38:49.861Z,-0.07
2022-12-08T23:41:16.575Z,-0.19
2022-12-08T23:43:46.277Z,-0.12
2022-12-08T23:46:14.398Z,-0.17
2022-12-08T23:48:41.184Z,-0.08
2022-12-08T23:51:08.318Z,0.06
2022-12-08T23:53:34.880Z,0.11
2022-12-08T23:56:13.292Z,0.12
2022-12-08T23:58:41.084Z,-0.19
